Map

Track Data

SID SEASON NUMBER BASIN SUBBASIN NAME ISO_TIME NATURE LAT LON WMO_WIND WMO_PRES WMO_AGENCY TRACK_TYPE DIST2LAND LANDFALL IFLAG USA_AGENCY USA_ATCF_ID USA_LAT USA_LON USA_RECORD USA_STATUS USA_WIND USA_PRES USA_SSHS USA_R34_NE USA_R34_SE USA_R34_SW USA_R34_NW USA_R50_NE USA_R50_SE USA_R50_SW USA_R50_NW USA_R64_NE USA_R64_SE USA_R64_SW USA_R64_NW USA_POCI USA_ROCI USA_RMW USA_EYE TOKYO_LAT TOKYO_LON TOKYO_GRADE TOKYO_WIND TOKYO_PRES TOKYO_R50_DIR TOKYO_R50_LONG TOKYO_R50_SHORT TOKYO_R30_DIR TOKYO_R30_LONG TOKYO_R30_SHORT TOKYO_LAND CMA_LAT CMA_LON CMA_CAT CMA_WIND CMA_PRES HKO_LAT HKO_LON HKO_CAT HKO_WIND HKO_PRES NEWDELHI_LAT NEWDELHI_LON NEWDELHI_GRADE NEWDELHI_WIND NEWDELHI_PRES NEWDELHI_CI NEWDELHI_DP NEWDELHI_POCI REUNION_LAT REUNION_LON REUNION_TYPE REUNION_WIND REUNION_PRES REUNION_TNUM REUNION_CI REUNION_RMW REUNION_R34_NE REUNION_R34_SE REUNION_R34_SW REUNION_R34_NW REUNION_R50_NE REUNION_R50_SE REUNION_R50_SW REUNION_R50_NW REUNION_R64_NE REUNION_R64_SE REUNION_R64_SW REUNION_R64_NW BOM_LAT BOM_LON BOM_TYPE BOM_WIND BOM_PRES BOM_TNUM BOM_CI BOM_RMW BOM_R34_NE BOM_R34_SE BOM_R34_SW BOM_R34_NW BOM_R50_NE BOM_R50_SE BOM_R50_SW BOM_R50_NW BOM_R64_NE BOM_R64_SE BOM_R64_SW BOM_R64_NW BOM_ROCI BOM_POCI BOM_EYE BOM_POS_METHOD BOM_PRES_METHOD NADI_LAT NADI_LON NADI_CAT NADI_WIND NADI_PRES WELLINGTON_LAT WELLINGTON_LON WELLINGTON_WIND WELLINGTON_PRES DS824_LAT DS824_LON DS824_STAGE DS824_WIND DS824_PRES TD9636_LAT TD9636_LON TD9636_STAGE TD9636_WIND TD9636_PRES TD9635_LAT TD9635_LON TD9635_WIND TD9635_PRES TD9635_ROCI NEUMANN_LAT NEUMANN_LON NEUMANN_CLASS NEUMANN_WIND NEUMANN_PRES MLC_LAT MLC_LON MLC_CLASS MLC_WIND MLC_PRES USA_GUST BOM_GUST BOM_GUST_PER REUNION_GUST REUNION_GUST_PER USA_SEAHGT USA_SEARAD_NE USA_SEARAD_SE USA_SEARAD_SW USA_SEARAD_NW STORM_SPEED STORM_DIR
1916280N12301 1916 56 NA NA NOT_NAMED 1916-10-06 06:00:00 TS 11.7000 -59.2000 30 hurdat_atl main 226 222 O_____________ hurdat_atl AL131916 11.7000 -59.2000 TD 30 -1 5 323
1916280N12301 1916 56 NA NA NOT_NAMED 1916-10-06 09:00:00 TS 11.9000 -59.3524 main 220 219 P_____________ AL131916 11.9000 -59.3524 TD 30 -1 5 324
1916280N12301 1916 56 NA NA NOT_NAMED 1916-10-06 12:00:00 TS 12.1000 -59.5000 30 hurdat_atl main 226 226 O_____________ hurdat_atl AL131916 12.1000 -59.5000 TD 30 -1 5 325
1916280N12301 1916 56 NA CS NOT_NAMED 1916-10-06 15:00:00 TS 12.3000 -59.6425 main 235 228 P_____________ AL131916 12.3000 -59.6425 TD 30 -1 5 324
1916280N12301 1916 56 NA CS NOT_NAMED 1916-10-06 18:00:00 TS 12.5000 -59.8000 30 hurdat_atl main 240 240 O_____________ hurdat_atl AL131916 12.5000 -59.8000 TD 30 -1 5 320
1916280N12301 1916 56 NA CS NOT_NAMED 1916-10-06 21:00:00 TS 12.7075 -59.9925 main 249 249 P_____________ AL131916 12.7075 -59.9925 TD 30 -1 6 316
1916280N12301 1916 56 NA CS NOT_NAMED 1916-10-07 00:00:00 TS 12.9000 -60.2000 30 hurdat_atl main 261 257 O_____________ hurdat_atl AL131916 12.9000 -60.2000 TD 30 -1 5 311
1916280N12301 1916 56 NA CS NOT_NAMED 1916-10-07 03:00:00 TS 13.0575 -60.4000 main 276 274 P_____________ AL131916 13.0575 -60.4000 TD 30 -1 5 308
1916280N12301 1916 56 NA CS NOT_NAMED 1916-10-07 06:00:00 TS 13.2000 -60.6000 30 hurdat_atl main 283 281 O_____________ hurdat_atl AL131916 13.2000 -60.6000 TD 30 -1 5 308
1916280N12301 1916 56 NA CS NOT_NAMED 1916-10-07 09:00:00 TS 13.3575 -60.7925 main 303 302 P_____________ AL131916 13.3575 -60.7925 TD 32 -1 5 308
1916280N12301 1916 56 NA CS NOT_NAMED 1916-10-07 12:00:00 TS 13.5000 -61.0000 35 hurdat_atl main 313 313 O_____________ hurdat_atl AL131916 13.5000 -61.0000 TS 35 0 5 300
1916280N12301 1916 56 NA CS NOT_NAMED 1916-10-07 15:00:00 TS 13.6075 -61.2425 main 324 324 P_____________ AL131916 13.6075 -61.2425 TS 37 0 5 292
1916280N12301 1916 56 NA CS NOT_NAMED 1916-10-07 18:00:00 TS 13.7000 -61.5000 40 hurdat_atl main 335 335 O_____________ hurdat_atl AL131916 13.7000 -61.5000 TS 40 0 5 291
1916280N12301 1916 56 NA CS NOT_NAMED 1916-10-07 21:00:00 TS 13.7925 -61.7500 main 347 347 P_____________ AL131916 13.7925 -61.7500 TS 42 0 5 292
1916280N12301 1916 56 NA CS NOT_NAMED 1916-10-08 00:00:00 TS 13.9000 -62.0000 45 hurdat_atl main 359 358 O_____________ hurdat_atl AL131916 13.9000 -62.0000 TS 45 0 5 297
1916280N12301 1916 56 NA CS NOT_NAMED 1916-10-08 03:00:00 TS 14.0425 -62.2500 main 369 369 P_____________ AL131916 14.0425 -62.2500 TS 47 0 6 302
1916280N12301 1916 56 NA CS NOT_NAMED 1916-10-08 06:00:00 TS 14.2000 -62.5000 50 hurdat_atl main 391 391 O_____________ hurdat_atl AL131916 14.2000 -62.5000 TS 50 0 6 300
1916280N12301 1916 56 NA CS NOT_NAMED 1916-10-08 09:00:00 TS 14.3350 -62.7650 main 403 403 P_____________ AL131916 14.3350 -62.7650 TS 52 0 6 302
1916280N12301 1916 56 NA CS NOT_NAMED 1916-10-08 12:00:00 TS 14.5000 -63.0000 55 hurdat_atl main 425 425 O_____________ hurdat_atl AL131916 14.5000 -63.0000 TS 55 0 6 316
1916280N12301 1916 56 NA CS NOT_NAMED 1916-10-08 15:00:00 TS 14.7350 -63.1650 main 448 428 P_____________ AL131916 14.7350 -63.1650 TS 57 0 6 330
1916280N12301 1916 56 NA CS NOT_NAMED 1916-10-08 18:00:00 TS 15.0000 -63.3000 60 hurdat_atl main 428 404 O_____________ hurdat_atl AL131916 15.0000 -63.3000 TS 60 0 6 332
1916280N12301 1916 56 NA CS NOT_NAMED 1916-10-08 21:00:00 TS 15.2500 -63.4500 main 397 364 P_____________ AL131916 15.2500 -63.4500 TS 62 0 6 330
1916280N12301 1916 56 NA CS NOT_NAMED 1916-10-09 00:00:00 TS 15.5000 -63.6000 65 hurdat_atl main 364 340 O_____________ hurdat_atl AL131916 15.5000 -63.6000 HU 65 1 6 330
1916280N12301 1916 56 NA CS NOT_NAMED 1916-10-09 03:00:00 TS 15.7500 -63.7500 main 334 301 P_____________ AL131916 15.7500 -63.7500 HU 70 1 6 330
1916280N12301 1916 56 NA CS NOT_NAMED 1916-10-09 06:00:00 TS 16.0000 -63.9000 75 hurdat_atl main 301 277 O_____________ hurdat_atl AL131916 16.0000 -63.9000 HU 75 1 6 328
1916280N12301 1916 56 NA CS NOT_NAMED 1916-10-09 09:00:00 TS 16.2275 -64.0575 main 270 238 P_____________ AL131916 16.2275 -64.0575 HU 80 1 6 330
1916280N12301 1916 56 NA CS NOT_NAMED 1916-10-09 12:00:00 TS 16.5000 -64.2000 85 hurdat_atl main 238 208 O_____________ hurdat_atl AL131916 16.5000 -64.2000 HU 85 2 7 338
1916280N12301 1916 56 NA CS NOT_NAMED 1916-10-09 15:00:00 TS 16.8550 -64.3150 main 200 162 P_____________ AL131916 16.8550 -64.3150 HU 90 2 8 347
1916280N12301 1916 56 NA CS NOT_NAMED 1916-10-09 18:00:00 TS 17.3000 -64.4000 95 963 hurdat_atl main 162 124 O_____________ hurdat_atl AL131916 17.3000 -64.4000 HU 95 963 2 10 352
1916280N12301 1916 56 NA CS NOT_NAMED 1916-10-09 21:00:00 TS 17.8125 -64.4576 main 124 116 P_____________ AL131916 17.8125 -64.4576 HU 95 2 11 355
1916280N12301 1916 56 NA CS NOT_NAMED 1916-10-10 00:00:00 TS 18.4000 -64.5000 95 hurdat_atl main 116 116 O_____________ hurdat_atl AL131916 18.4000 -64.5000 HU 95 2 12 356
1916280N12301 1916 56 NA NA NOT_NAMED 1916-10-10 03:00:00 TS 19.0425 -64.5500 main 124 124 P_____________ AL131916 19.0425 -64.5500 HU 95 2 13 356
1916280N12301 1916 56 NA NA NOT_NAMED 1916-10-10 06:00:00 TS 19.7000 -64.6000 95 hurdat_atl main 179 179 O_____________ hurdat_atl AL131916 19.7000 -64.6000 HU 95 2 13 355
1916280N12301 1916 56 NA NA NOT_NAMED 1916-10-10 09:00:00 TS 20.3225 -64.6574 main 232 232 P_____________ AL131916 20.3225 -64.6574 HU 95 2 12 355
1916280N12301 1916 56 NA NA NOT_NAMED 1916-10-10 12:00:00 TS 20.9000 -64.7000 95 hurdat_atl main 295 295 O_____________ hurdat_atl AL131916 20.9000 -64.7000 HU 95 2 11 358
1916280N12301 1916 56 NA NA NOT_NAMED 1916-10-10 15:00:00 TS 21.4150 -64.7076 main 348 348 P_____________ AL131916 21.4150 -64.7076 HU 95 2 10 1
1916280N12301 1916 56 NA NA NOT_NAMED 1916-10-10 18:00:00 TS 21.9000 -64.7000 95 hurdat_atl main 402 402 O_____________ hurdat_atl AL131916 21.9000 -64.7000 HU 95 2 10 1
1916280N12301 1916 56 NA NA NOT_NAMED 1916-10-10 21:00:00 TS 22.4000 -64.7074 main 457 457 P_____________ AL131916 22.4000 -64.7074 HU 95 2 10 1
1916280N12301 1916 56 NA NA NOT_NAMED 1916-10-11 00:00:00 TS 22.9000 -64.7000 95 hurdat_atl main 511 511 O_____________ hurdat_atl AL131916 22.9000 -64.7000 HU 95 2 10 2
1916280N12301 1916 56 NA NA NOT_NAMED 1916-10-11 03:00:00 TS 23.4075 -64.6576 main 566 566 P_____________ AL131916 23.4075 -64.6576 HU 95 2 10 5
1916280N12301 1916 56 NA NA NOT_NAMED 1916-10-11 06:00:00 TS 23.9000 -64.6000 95 hurdat_atl main 623 623 O_____________ hurdat_atl AL131916 23.9000 -64.6000 HU 95 2 10 5
1916280N12301 1916 56 NA NA NOT_NAMED 1916-10-11 09:00:00 TS 24.3650 -64.5648 main 678 678 P_____________ AL131916 24.3650 -64.5648 HU 97 3 9 5
1916280N12301 1916 56 NA NA NOT_NAMED 1916-10-11 12:00:00 TS 24.8000 -64.5000 100 hurdat_atl main 724 724 O_____________ hurdat_atl AL131916 24.8000 -64.5000 HU 100 3 9 12
1916280N12301 1916 56 NA NA NOT_NAMED 1916-10-11 15:00:00 TS 25.2150 -64.3725 main 770 770 P_____________ AL131916 25.2150 -64.3725 HU 100 3 8 19
1916280N12301 1916 56 NA NA NOT_NAMED 1916-10-11 18:00:00 TS 25.6000 -64.2000 100 hurdat_atl main 817 817 O_____________ hurdat_atl AL131916 25.6000 -64.2000 HU 100 3 8 24
1916280N12301 1916 56 NA NA NOT_NAMED 1916-10-11 21:00:00 TS 25.9500 -64.0148 main 854 854 P_____________ AL131916 25.9500 -64.0148 HU 100 3 8 27
1916280N12301 1916 56 NA NA NOT_NAMED 1916-10-12 00:00:00 TS 26.3000 -63.8000 100 hurdat_atl main 902 902 O_____________ hurdat_atl AL131916 26.3000 -63.8000 HU 100 3 8 28
1916280N12301 1916 56 NA NA NOT_NAMED 1916-10-12 03:00:00 TS 26.6924 -63.5797 main 950 950 P_____________ AL131916 26.6924 -63.5797 HU 100 3 9 29
1916280N12301 1916 56 NA NA NOT_NAMED 1916-10-12 06:00:00 TS 27.1000 -63.3000 100 hurdat_atl main 1000 1000 O_____________ hurdat_atl AL131916 27.1000 -63.3000 HU 100 3 10 35
1916280N12301 1916 56 NA NA NOT_NAMED 1916-10-12 09:00:00 TS 27.4847 -62.9593 main 1051 1051 P_____________ AL131916 27.4847 -62.9593 HU 102 3 11 42
1916280N12301 1916 56 NA NA NOT_NAMED 1916-10-12 12:00:00 TS 27.9000 -62.5000 105 hurdat_atl main 1107 1107 O_____________ hurdat_atl AL131916 27.9000 -62.5000 HU 105 3 13 45
1916280N12301 1916 56 NA NA NOT_NAMED 1916-10-12 15:00:00 TS 28.3768 -61.9391 main 1179 1179 P_____________ AL131916 28.3768 -61.9391 HU 105 3 15 49
1916280N12301 1916 56 NA NA NOT_NAMED 1916-10-12 18:00:00 TS 28.9000 -61.2000 105 hurdat_atl main 1255 1255 O_____________ hurdat_atl AL131916 28.9000 -61.2000 HU 105 3 18 54
1916280N12301 1916 56 NA NA NOT_NAMED 1916-10-12 21:00:00 TS 29.4351 -60.2595 main 1341 1341 P_____________ AL131916 29.4351 -60.2595 HU 102 3 21 58
1916280N12301 1916 56 NA NA NOT_NAMED 1916-10-13 00:00:00 TS 30.0000 -59.2000 100 hurdat_atl main 1448 1448 O_____________ hurdat_atl AL131916 30.0000 -59.2000 HU 100 3 22 58
1916280N12301 1916 56 NA NA NOT_NAMED 1916-10-13 03:00:00 TS 30.5844 -58.1563 main 1553 1543 P_____________ AL131916 30.5844 -58.1563 HU 95 2 22 56
1916280N12301 1916 56 NA NA NOT_NAMED 1916-10-13 06:00:00 TS 31.2000 -57.1000 90 hurdat_atl main 1547 1530 O_____________ hurdat_atl AL131916 31.2000 -57.1000 HU 90 2 22 56
1916280N12301 1916 56 NA NA NOT_NAMED 1916-10-13 09:00:00 TS 31.8040 -56.0547 main 1530 1504 P_____________ AL131916 31.8040 -56.0547 HU 85 2 22 54
1916280N12301 1916 56 NA NA NOT_NAMED 1916-10-13 12:00:00 TS 32.5000 -55.0000 80 hurdat_atl main 1507 1456 O_____________ hurdat_atl AL131916 32.5000 -55.0000 HU 80 1 24 50
1916280N12301 1916 56 NA NA NOT_NAMED 1916-10-13 15:00:00 TS 33.3094 -53.9046 main 1460 1380 P_____________ AL131916 33.3094 -53.9046 HU 77 1 26 46
1916280N12301 1916 56 NA NA NOT_NAMED 1916-10-13 18:00:00 TS 34.3000 -52.8000 75 hurdat_atl main 1369 1251 O_____________ hurdat_atl AL131916 34.3000 -52.8000 HU 75 1 28 40
1916280N12301 1916 56 NA NA NOT_NAMED 1916-10-13 21:00:00 TS 35.4740 -51.7047 main 1241 1120 P_____________ AL131916 35.4740 -51.7047 HU 70 1 31 36
1916280N12301 1916 56 NA NA NOT_NAMED 1916-10-14 00:00:00 ET 36.8000 -50.6000 65 hurdat_atl main 1110 992 O_____________ hurdat_atl AL131916 36.8000 -50.6000 EX 65 -4 32 34
1916280N12301 1916 56 NA NA NOT_NAMED 1916-10-14 03:00:00 ET 38.1692 -49.4541 main 981 879 P_____________ AL131916 38.1692 -49.4541 EX 62 -4 33 33
1916280N12301 1916 56 NA NA NOT_NAMED 1916-10-14 06:00:00 ET 39.6000 -48.3000 60 hurdat_atl main 873 785 O_____________ hurdat_atl AL131916 39.6000 -48.3000 EX 60 -4 34 32
1916280N12301 1916 56 NA NA NOT_NAMED 1916-10-14 09:00:00 ET 41.0335 -47.1588 main 785 729 P_____________ AL131916 41.0335 -47.1588 EX 57 -4 34 31
1916280N12301 1916 56 NA NA NOT_NAMED 1916-10-14 12:00:00 ET 42.5000 -46.0000 55 hurdat_atl main 727 710 O_____________ hurdat_atl AL131916 42.5000 -46.0000 EX 55 -4 34 31
1916280N12301 1916 56 NA NA NOT_NAMED 1916-10-14 15:00:00 ET 43.9919 -44.7533 main 709 709 P_____________ AL131916 43.9919 -44.7533 EX 52 -4 35 31
1916280N12301 1916 56 NA NA NOT_NAMED 1916-10-14 18:00:00 ET 45.5000 -43.5000 50 hurdat_atl main 727 727 O_____________ hurdat_atl AL131916 45.5000 -43.5000 EX 50 -4 35 30
1916280N12301 1916 56 NA NA NOT_NAMED 1916-10-14 21:00:00 ET 47.0043 -42.2973 main 775 775 P_____________ AL131916 47.0043 -42.2973 EX 47 -4 34 29
1916280N12301 1916 56 NA NA NOT_NAMED 1916-10-15 00:00:00 ET 48.5000 -41.1000 45 hurdat_atl main 858 O_____________ hurdat_atl AL131916 48.5000 -41.1000 EX 45 -4 34 28

About IBTrACS Database

This database is a web-friendly format of International Best Track Archive for Climate Stewardship (IBTrACS), a global best track data archive curated by NOAA dating back to 1842.

Updated: 2021-10-08